Time;durP1;ratioP1;P1;durP2;ratioP2;P2;SDS_P1;SDS_P2;PMS_P1;PMS_P2;Temp;Humidity;BMP_temperature;BMP_pressure;BME280_temperature;BME280_humidity;BME280_pressure;Samples;Min_cycle;Max_cycle;Signal;HPM_P1;HPM_P2
2022/05/15 00:02:15;;;;;;;4.60;3.00;;;;;;;12.66;70.56;101215.06;107407;1254;60038;-80
2022/05/15 00:04:44;;;;;;;4.80;2.80;;;;;;;12.53;70.23;101214.25;107155;1256;72056;-80
2022/05/15 00:07:13;;;;;;;5.50;3.00;;;;;;;12.43;70.20;101214.42;106909;1256;72407;-81
2022/05/15 00:09:42;;;;;;;4.10;3.10;;;;;;;12.35;73.02;101215.92;106753;1256;70406;-80
2022/05/15 00:12:11;;;;;;;5.60;3.20;;;;;;;12.33;74.72;101213.63;106932;1254;72464;-81
2022/05/15 00:14:40;;;;;;;6.60;2.90;;;;;;;12.36;75.16;101208.48;106966;1256;61256;-79
2022/05/15 00:17:09;;;;;;;4.10;2.80;;;;;;;12.40;75.01;101207.85;107060;1254;61664;-81
2022/05/15 00:19:39;;;;;;;5.50;3.10;;;;;;;12.47;74.70;101211.19;107028;1256;72646;-81
2022/05/15 00:22:08;;;;;;;6.30;3.30;;;;;;;12.48;73.15;101211.98;106978;1256;71630;-81
2022/05/15 00:24:38;;;;;;;6.60;3.00;;;;;;;12.49;74.12;101210.38;106451;1257;70598;-79
2022/05/15 00:27:07;;;;;;;5.30;3.10;;;;;;;12.48;75.18;101205.34;106929;1256;73772;-79
2022/05/15 00:29:38;;;;;;;5.60;3.10;;;;;;;12.52;74.93;101205.74;107028;1254;63762;-81
2022/05/15 00:32:08;;;;;;;5.10;3.50;;;;;;;12.53;74.99;101204.32;107142;1255;61481;-81
2022/05/15 00:34:37;;;;;;;5.80;3.60;;;;;;;12.58;74.97;101209.36;107334;1255;72780;-83
2022/05/15 00:37:05;;;;;;;4.90;2.90;;;;;;;12.63;74.64;101206.34;107195;1256;70114;-82
2022/05/15 00:39:34;;;;;;;5.90;3.70;;;;;;;12.66;74.75;101202.11;107101;1254;69445;-83
2022/05/15 00:42:09;;;;;;;4.30;3.20;;;;;;;12.71;74.50;101208.04;107020;1256;74463;-83
2022/05/15 00:44:38;;;;;;;5.20;3.10;;;;;;;12.75;74.52;101208.80;106895;1255;63836;-80
2022/05/15 00:47:07;;;;;;;5.50;3.00;;;;;;;12.79;74.26;101207.98;106887;1255;59622;-82
2022/05/15 00:49:37;;;;;;;6.30;3.80;;;;;;;12.82;74.21;101206.88;106953;1256;72009;-83
2022/05/15 00:52:13;;;;;;;6.40;3.20;;;;;;;12.82;74.11;101206.56;107579;1254;71136;-78
2022/05/15 00:54:49;;;;;;;5.60;3.60;;;;;;;12.80;74.35;101206.31;107183;1256;66828;-80
2022/05/15 00:57:48;;;;;;;5.50;3.20;;;;;;;12.82;74.17;101208.50;106898;1256;71027;-79
2022/05/15 01:00:23;;;;;;;5.10;3.10;;;;;;;12.80;74.08;101207.89;106910;1256;60503;-78
2022/05/15 01:03:00;;;;;;;6.00;3.00;;;;;;;12.77;74.54;101212.35;106851;1256;60148;-79
2022/05/15 01:05:29;;;;;;;4.90;3.20;;;;;;;12.74;74.92;101209.36;106958;1256;70984;-80
2022/05/15 01:07:58;;;;;;;5.60;3.20;;;;;;;12.70;74.95;101210.37;106645;1256;73023;-81
2022/05/15 01:10:27;;;;;;;5.70;3.20;;;;;;;12.72;75.19;101207.23;106847;1256;70914;-81
2022/05/15 01:12:58;;;;;;;4.10;3.40;;;;;;;12.73;75.09;101209.30;106821;1256;72630;-82
2022/05/15 01:15:28;;;;;;;5.00;3.10;;;;;;;12.73;74.87;101207.54;106948;1256;61969;-82
2022/05/15 01:17:59;;;;;;;5.00;3.00;;;;;;;12.72;74.92;101209.73;106762;1257;59080;-77
2022/05/15 01:20:30;;;;;;;4.80;3.30;;;;;;;12.70;75.42;101211.10;106875;1256;71153;-80
2022/05/15 01:22:59;;;;;;;8.50;3.60;;;;;;;12.75;75.39;101211.23;106629;1256;70389;-77
2022/05/15 01:25:32;;;;;;;6.90;3.40;;;;;;;12.77;75.14;101214.96;106850;1256;69805;-82
2022/05/15 01:28:17;;;;;;;4.60;3.10;;;;;;;12.75;75.26;101215.10;106900;1256;73543;-83
2022/05/15 01:30:51;;;;;;;8.00;3.20;;;;;;;12.79;75.26;101211.31;106980;1255;62789;-83
2022/05/15 01:33:21;;;;;;;4.60;3.00;;;;;;;12.81;75.24;101212.54;106953;1256;61542;-83
2022/05/15 01:35:50;;;;;;;5.50;3.40;;;;;;;12.80;75.11;101207.90;106869;1256;71560;-81
2022/05/15 01:38:19;;;;;;;4.90;2.90;;;;;;;12.75;75.26;101199.89;106908;1256;69591;-81
2022/05/15 01:40:50;;;;;;;5.10;3.20;;;;;;;12.72;75.64;101201.84;106835;1256;68760;-79
2022/05/15 01:43:19;;;;;;;9.00;3.50;;;;;;;12.67;75.80;101199.04;106776;1256;72039;-78
2022/05/15 01:45:48;;;;;;;7.70;3.60;;;;;;;12.67;76.05;101202.03;106807;1256;62299;-78
2022/05/15 01:48:17;;;;;;;4.30;3.30;;;;;;;12.64;75.82;101203.14;106477;1256;60936;-78
2022/05/15 01:50:47;;;;;;;5.40;3.30;;;;;;;12.62;76.14;101200.17;106841;1255;75086;-83
2022/05/15 01:53:21;;;;;;;6.50;3.80;;;;;;;12.58;76.18;101195.05;106813;1256;69422;-82
2022/05/15 01:55:52;;;;;;;5.80;3.30;;;;;;;12.52;76.47;101192.83;106764;1256;68757;-85
2022/05/15 01:58:22;;;;;;;6.40;3.80;;;;;;;12.49;76.74;101192.71;107197;1256;73963;-81
2022/05/15 02:00:51;;;;;;;6.70;3.50;;;;;;;12.42;77.19;101189.67;107317;1255;63569;-82
2022/05/15 02:03:20;;;;;;;7.50;4.10;;;;;;;12.39;77.29;101191.82;107318;1256;59304;-82
2022/05/15 02:05:49;;;;;;;6.40;3.90;;;;;;;12.37;77.61;101192.70;107318;1256;72048;-84
2022/05/15 02:08:19;;;;;;;5.80;3.90;;;;;;;12.34;77.45;101192.38;107375;1256;71473;-82
2022/05/15 02:10:48;;;;;;;6.40;4.50;;;;;;;12.27;77.85;101194.63;107351;1255;68889;-84
2022/05/15 02:13:17;;;;;;;6.40;4.60;;;;;;;12.16;78.39;101195.63;107247;1256;71192;-85
2022/05/15 02:15:46;;;;;;;7.00;4.60;;;;;;;12.12;78.63;101196.43;107163;1256;60518;-82
2022/05/15 02:18:15;;;;;;;6.90;4.70;;;;;;;12.07;78.30;101197.84;107181;1254;60315;-81
2022/05/15 02:20:44;;;;;;;11.30;6.30;;;;;;;11.98;76.43;101197.44;106985;1256;72747;-78
2022/05/15 02:23:13;;;;;;;7.00;4.70;;;;;;;11.80;76.85;101195.52;107010;1256;71136;-79
2022/05/15 02:25:42;;;;;;;8.30;4.40;;;;;;;11.65;79.55;101201.05;107032;1256;68738;-80
2022/05/15 02:28:11;;;;;;;10.30;4.30;;;;;;;11.59;80.15;101197.69;106924;1256;72336;-80
2022/05/15 02:30:40;;;;;;;7.40;4.50;;;;;;;11.53;80.35;101198.95;106728;1256;62556;-79
2022/05/15 02:33:09;;;;;;;5.60;4.00;;;;;;;11.54;80.59;101196.98;106778;1254;59862;-81
2022/05/15 02:35:38;;;;;;;6.90;4.10;;;;;;;11.53;80.65;101200.16;106828;1256;72645;-82
2022/05/15 02:38:08;;;;;;;5.00;3.80;;;;;;;11.51;80.62;101195.58;107212;1254;72045;-82
2022/05/15 02:40:37;;;;;;;6.80;4.70;;;;;;;11.52;80.58;101193.09;106940;1254;68604;-80
2022/05/15 02:43:06;;;;;;;7.50;4.30;;;;;;;11.51;80.35;101197.70;106724;1256;70938;-79
2022/05/15 02:45:35;;;;;;;7.00;4.00;;;;;;;11.47;80.40;101198.47;106877;1256;63657;-82
2022/05/15 02:48:04;;;;;;;5.70;4.20;;;;;;;11.44;80.52;101204.09;106799;1255;60391;-76
2022/05/15 02:53:20;;;;;;;4.90;4.10;;;;;;;11.36;80.10;101202.54;107055;1254;73092;-82
2022/05/15 02:55:49;;;;;;;6.40;4.20;;;;;;;11.32;80.30;101202.14;107101;1254;71146;-83
2022/05/15 02:58:17;;;;;;;4.90;3.70;;;;;;;11.29;80.87;101205.65;106951;1255;74332;-82
2022/05/15 03:00:47;;;;;;;6.40;3.70;;;;;;;11.28;80.66;101209.20;107165;1255;62752;-84
2022/05/15 03:03:15;;;;;;;5.10;3.50;;;;;;;11.29;80.83;101210.55;106833;1256;60854;-84
2022/05/15 03:05:45;;;;;;;5.60;4.10;;;;;;;11.29;80.55;101209.98;106716;1256;74275;-81
2022/05/15 03:08:13;;;;;;;6.90;3.80;;;;;;;11.30;80.71;101214.65;106647;1256;72150;-80
2022/05/15 03:10:42;;;;;;;5.40;3.90;;;;;;;11.33;80.77;101210.56;106586;1257;69552;-79
2022/05/15 03:13:11;;;;;;;7.40;4.10;;;;;;;11.39;80.45;101211.21;106808;1256;73307;-84
2022/05/15 03:15:40;;;;;;;5.90;4.40;;;;;;;11.42;80.60;101211.04;107049;1256;63573;-83
2022/05/15 03:18:09;;;;;;;7.70;4.10;;;;;;;11.52;80.28;101213.44;107039;1256;60836;-85
2022/05/15 03:20:37;;;;;;;5.90;4.10;;;;;;;11.62;79.85;101210.02;106871;1256;73434;-84
2022/05/15 03:23:06;;;;;;;10.20;4.90;;;;;;;11.71;79.69;101212.56;106749;1256;70490;-79
2022/05/15 03:25:35;;;;;;;8.70;4.60;;;;;;;11.78;79.30;101209.41;106490;1257;67961;-82
2022/05/15 03:28:09;;;;;;;11.30;4.60;;;;;;;11.84;79.35;101213.06;106692;1256;73953;-79
2022/05/15 03:30:43;;;;;;;10.00;5.80;;;;;;;11.86;79.12;101214.13;106622;1255;62862;-81
2022/05/15 03:33:12;;;;;;;10.10;5.70;;;;;;;11.93;79.17;101216.79;106593;1256;60149;-79
2022/05/15 03:35:42;;;;;;;7.00;4.50;;;;;;;12.02;78.89;101222.66;106628;1256;71777;-80
2022/05/15 03:38:10;;;;;;;8.90;4.20;;;;;;;12.01;78.23;101211.31;106491;1256;72177;-81
2022/05/15 03:40:39;;;;;;;8.10;5.00;;;;;;;12.08;78.50;101220.96;106498;1257;68831;-78
2022/05/15 03:43:08;;;;;;;7.50;4.40;;;;;;;12.13;78.53;101220.99;106546;1256;72020;-77
2022/05/15 03:45:37;;;;;;;7.30;4.70;;;;;;;12.16;78.48;101218.48;106721;1256;61882;-80
2022/05/15 03:48:06;;;;;;;7.50;4.60;;;;;;;12.23;78.32;101220.98;106614;1256;61233;-79
2022/05/15 03:50:36;;;;;;;5.00;4.20;;;;;;;12.30;78.12;101220.44;106583;1256;74169;-82
2022/05/15 03:53:05;;;;;;;7.70;4.60;;;;;;;12.37;78.06;101215.77;106715;1256;72096;-82
2022/05/15 03:55:34;;;;;;;6.90;4.60;;;;;;;12.43;77.65;101221.23;106783;1256;70348;-86
2022/05/15 03:58:02;;;;;;;7.50;4.90;;;;;;;12.48;77.22;101217.92;106842;1256;74627;-84
2022/05/15 04:00:31;;;;;;;6.10;4.40;;;;;;;12.52;77.28;101219.89;107007;1256;63616;-84
2022/05/15 04:03:01;;;;;;;8.40;5.20;;;;;;;12.56;77.43;101218.58;107094;1256;59533;-83
2022/05/15 04:05:30;;;;;;;8.30;5.00;;;;;;;12.63;77.05;101217.21;107112;1256;73661;-84
2022/05/15 04:07:58;;;;;;;6.70;4.90;;;;;;;12.70;76.93;101219.11;106600;1256;70414;-82
2022/05/15 04:10:30;;;;;;;10.70;5.10;;;;;;;12.78;76.53;101216.42;106981;1256;67096;-83
2022/05/15 04:12:58;;;;;;;9.40;4.90;;;;;;;12.85;76.28;101217.88;106904;1256;74062;-83
2022/05/15 04:15:27;;;;;;;10.00;4.80;;;;;;;12.91;75.98;101219.82;106575;1256;61832;-83
2022/05/15 04:17:57;;;;;;;11.50;5.40;;;;;;;12.99;75.54;101223.95;106905;1256;59676;-83
2022/05/15 04:20:29;;;;;;;8.80;5.20;;;;;;;13.10;75.49;101221.93;106874;1256;73803;-83
2022/05/15 04:22:58;;;;;;;11.60;5.20;;;;;;;13.21;74.40;101223.06;107034;1256;71951;-82
2022/05/15 04:25:27;;;;;;;10.60;4.80;;;;;;;13.32;74.07;101226.57;106956;1256;69155;-83
2022/05/15 04:27:56;;;;;;;7.20;4.90;;;;;;;13.43;72.72;101228.23;106720;1256;74623;-82
2022/05/15 04:30:27;;;;;;;8.00;5.10;;;;;;;13.56;72.62;101231.23;106856;1256;61750;-84
2022/05/15 04:32:56;;;;;;;6.80;4.80;;;;;;;13.72;73.01;101234.17;106932;1256;59999;-81
2022/05/15 04:35:25;;;;;;;8.40;5.70;;;;;;;13.88;72.73;101238.08;106829;1256;70985;-84
2022/05/15 04:37:54;;;;;;;10.00;4.70;;;;;;;13.99;72.03;101237.83;106969;1256;71494;-84
2022/05/15 04:40:22;;;;;;;8.50;5.60;;;;;;;14.12;71.16;101238.83;107178;1256;70229;-83
2022/05/15 04:42:51;;;;;;;8.80;5.00;;;;;;;14.26;69.56;101243.11;107007;1256;72825;-82
2022/05/15 04:45:20;;;;;;;7.90;4.80;;;;;;;14.43;70.08;101247.70;106968;1256;61385;-82
2022/05/15 04:47:49;;;;;;;11.10;5.70;;;;;;;14.62;69.11;101250.92;106836;1256;60469;-83
2022/05/15 04:50:19;;;;;;;8.70;5.10;;;;;;;14.68;68.32;101251.37;107046;1256;71816;-83
2022/05/15 04:52:48;;;;;;;9.70;4.20;;;;;;;14.73;67.60;101252.03;107118;1256;70078;-83
2022/05/15 04:55:17;;;;;;;10.10;4.90;;;;;;;14.88;66.91;101251.09;107169;1255;68735;-83
2022/05/15 04:57:46;;;;;;;10.10;5.30;;;;;;;14.94;66.73;101250.96;107201;1255;73981;-82
2022/05/15 05:00:18;;;;;;;6.20;4.50;;;;;;;14.99;66.55;101251.65;107183;1255;60698;-83
2022/05/15 05:02:47;;;;;;;6.90;4.30;;;;;;;15.04;65.97;101257.67;107149;1256;61465;-82
2022/05/15 05:05:17;;;;;;;7.40;4.90;;;;;;;15.07;65.69;101259.14;107043;1256;73795;-84
2022/05/15 05:07:45;;;;;;;8.60;4.90;;;;;;;15.06;65.73;101259.95;107091;1256;70394;-81
2022/05/15 05:10:15;;;;;;;6.50;4.50;;;;;;;15.10;66.26;101258.60;107306;1256;68012;-83
2022/05/15 05:12:44;;;;;;;7.40;4.60;;;;;;;15.20;66.10;101259.56;106984;1256;74936;-83
2022/05/15 05:15:14;;;;;;;6.80;4.00;;;;;;;15.25;66.12;101260.47;106933;1256;61800;-81
2022/05/15 05:17:43;;;;;;;7.80;4.80;;;;;;;15.33;65.80;101259.63;106966;1256;60525;-83
2022/05/15 05:20:14;;;;;;;6.80;4.20;;;;;;;15.43;64.33;101264.05;106823;1256;73304;-84
2022/05/15 05:22:43;;;;;;;6.70;4.60;;;;;;;15.59;64.37;101263.11;107004;1254;69956;-81
2022/05/15 05:25:12;;;;;;;7.70;4.90;;;;;;;15.68;64.00;101261.84;106878;1256;70093;-81
2022/05/15 05:27:42;;;;;;;7.60;4.70;;;;;;;15.77;63.52;101264.21;106746;1256;74448;-81
2022/05/15 05:30:19;;;;;;;9.70;4.70;;;;;;;15.90;63.60;101259.23;106753;1256;59729;-82
2022/05/15 05:32:49;;;;;;;7.40;4.40;;;;;;;16.03;62.84;101264.29;106749;1256;61701;-81
2022/05/15 05:35:20;;;;;;;5.10;3.80;;;;;;;16.07;62.31;101259.99;106677;1256;74185;-80
2022/05/15 05:37:50;;;;;;;8.20;4.60;;;;;;;16.01;63.21;101262.85;106832;1256;72336;-82
2022/05/15 05:40:20;;;;;;;9.20;4.70;;;;;;;16.02;62.38;101263.64;106731;1256;71124;-82
2022/05/15 05:42:48;;;;;;;6.10;4.40;;;;;;;16.02;63.03;101262.55;106913;1256;75480;-82
2022/05/15 05:45:18;;;;;;;6.30;4.40;;;;;;;16.08;62.53;101266.11;106921;1256;60590;-83
2022/05/15 05:47:50;;;;;;;7.50;4.40;;;;;;;16.11;62.29;101260.55;107556;1256;60547;-81
2022/05/15 05:50:21;;;;;;;5.90;4.30;;;;;;;16.18;62.42;101253.81;107424;1256;74175;-83
2022/05/15 05:52:51;;;;;;;6.40;4.10;;;;;;;16.25;61.44;101255.34;106672;1259;71125;-84
2022/05/15 05:55:22;;;;;;;8.90;4.50;;;;;;;16.45;61.17;101258.98;106888;1257;67945;-82
2022/05/15 05:57:51;;;;;;;7.40;4.30;;;;;;;16.66;59.53;101261.16;107057;1256;73920;-80
2022/05/15 06:00:27;;;;;;;10.00;4.90;;;;;;;16.77;59.68;101264.66;106808;1257;60318;-82
2022/05/15 06:05:46;;;;;;;5.20;3.00;;;;;;;17.12;55.70;101267.27;107330;1256;74208;-83
2022/05/15 06:08:17;;;;;;;5.70;3.30;;;;;;;17.29;54.42;101268.65;106625;1256;565996;-79
2022/05/15 06:10:47;;;;;;;5.30;3.00;;;;;;;17.45;54.37;101261.23;106898;1257;70623;-83
2022/05/15 06:13:16;;;;;;;6.30;3.50;;;;;;;17.67;54.51;101271.17;107373;1256;73922;-79
2022/05/15 06:15:46;;;;;;;6.30;3.30;;;;;;;17.79;53.85;101269.50;107630;1256;60620;-81
2022/05/15 06:18:15;;;;;;;6.90;3.40;;;;;;;17.87;52.59;101267.69;107406;1256;62303;-83
2022/05/15 06:20:43;;;;;;;6.40;3.60;;;;;;;17.96;51.98;101269.15;107940;1257;73361;-83
2022/05/15 06:23:12;;;;;;;5.30;3.40;;;;;;;18.00;51.82;101272.79;108094;1256;70223;-87
2022/05/15 06:25:41;;;;;;;5.80;3.10;;;;;;;18.01;51.49;101270.45;107851;1251;69199;-85
2022/05/15 06:28:10;;;;;;;4.60;3.50;;;;;;;17.97;51.60;101273.54;107139;1256;72927;-81
2022/05/15 06:30:39;;;;;;;6.40;3.40;;;;;;;17.92;51.61;101276.92;107379;1256;61803;-82
2022/05/15 06:33:08;;;;;;;7.20;3.70;;;;;;;17.89;51.88;101269.59;107180;1256;61072;-84
2022/05/15 06:35:44;;;;;;;6.10;3.40;;;;;;;17.95;51.79;101275.08;108031;1256;74552;-83
2022/05/15 06:38:21;;;;;;;7.90;3.30;;;;;;;18.07;51.84;101271.09;107397;1256;73457;-82
2022/05/15 06:40:51;;;;;;;5.10;3.30;;;;;;;18.21;51.34;101273.48;107467;1256;70376;-82
2022/05/15 06:43:26;;;;;;;6.70;4.10;;;;;;;18.20;51.44;101272.11;107189;1256;73570;-82
2022/05/15 06:45:58;;;;;;;6.70;4.00;;;;;;;18.25;50.41;101269.85;107617;1256;61183;-82
2022/05/15 06:48:29;;;;;;;7.50;4.00;;;;;;;18.33;50.70;101266.61;107196;1256;60218;-84
2022/05/15 06:51:03;;;;;;;6.20;3.90;;;;;;;18.38;50.83;101266.00;107126;1257;73350;-82
2022/05/15 06:53:35;;;;;;;6.80;3.30;;;;;;;18.44;50.93;101262.96;107241;1256;60979;-84
2022/05/15 06:59:00;;;;;;;7.70;4.00;;;;;;;18.66;50.50;101267.02;106712;1257;72988;-85
2022/05/15 07:01:34;;;;;;;6.90;4.00;;;;;;;18.65;49.74;101257.41;107078;1256;61401;-80
2022/05/15 07:04:03;;;;;;;6.40;3.90;;;;;;;18.65;49.26;101265.64;107326;1256;58842;-82
2022/05/15 07:06:32;;;;;;;10.10;4.10;;;;;;;18.65;49.42;101261.76;107704;1256;62618;-85
2022/05/15 07:09:01;;;;;;;7.90;4.10;;;;;;;18.68;50.06;101265.91;107292;1256;60806;-82
2022/05/15 07:11:30;;;;;;;8.80;4.00;;;;;;;18.74;49.74;101269.36;107283;1256;59846;-84
2022/05/15 07:13:59;;;;;;;7.30;4.00;;;;;;;18.83;49.03;101268.68;107931;1256;73181;-84
2022/05/15 07:16:27;;;;;;;8.40;3.90;;;;;;;18.86;48.95;101263.94;107745;1256;59207;-84
2022/05/15 07:18:56;;;;;;;6.50;4.10;;;;;;;18.91;48.81;101264.59;107184;1256;59190;-81
2022/05/15 07:21:25;;;;;;;8.30;4.10;;;;;;;18.91;48.30;101266.81;107764;1256;74570;-85
2022/05/15 07:23:53;;;;;;;8.10;4.60;;;;;;;18.90;48.02;101264.48;107520;1257;73156;-83
2022/05/15 07:26:22;;;;;;;8.90;4.60;;;;;;;18.89;48.26;101259.48;107482;1256;59620;-83
2022/05/15 07:28:51;;;;;;;6.90;3.80;;;;;;;18.92;48.64;101260.39;107445;1256;63264;-84
2022/05/15 07:31:21;;;;;;;8.20;4.50;;;;;;;19.01;48.73;101263.88;107536;1255;59032;-86
2022/05/15 07:33:50;;;;;;;6.70;4.30;;;;;;;19.05;48.71;101260.13;107467;1257;58761;-83
2022/05/15 07:36:19;;;;;;;6.50;4.30;;;;;;;19.09;48.57;101259.59;108320;1248;74289;-80
2022/05/15 07:38:47;;;;;;;5.80;4.20;;;;;;;19.20;49.00;101254.60;107681;1256;71828;-83
2022/05/15 07:41:16;;;;;;;12.30;4.40;;;;;;;19.31;47.92;101264.78;108243;1256;60959;-85
2022/05/15 07:43:45;;;;;;;5.60;4.20;;;;;;;19.50;47.06;101262.67;108444;1244;73942;-84
2022/05/15 07:46:14;;;;;;;8.70;4.20;;;;;;;19.56;45.61;101257.89;108498;1257;57882;-84
2022/05/15 07:48:43;;;;;;;5.30;3.70;;;;;;;19.59;45.36;101254.17;108733;1256;57329;-84
2022/05/15 08:02:05;;;;;;;6.50;3.30;;;;;;;20.11;43.41;101257.86;105787;1289;614821;-81
2022/05/15 08:10:20;;;;;;;7.50;3.40;;;;;;;20.10;40.87;101260.55;108479;1259;70903;-79
2022/05/15 08:13:45;;;;;;;7.40;3.20;;;;;;;20.10;41.40;101261.10;108311;1250;72123;31
2022/05/15 08:16:14;;;;;;;5.80;3.30;;;;;;;20.18;41.74;101251.95;106279;1279;60106;-82
2022/05/15 08:24:24;;;;;;;;;;;;;;;20.60;40.64;101248.42;106386;1276;60541;-80
2022/05/15 08:26:54;;;;;;;10.00;3.10;;;;;;;20.56;40.90;101246.02;107362;1267;62806;-80
2022/05/15 08:29:23;;;;;;;7.70;2.90;;;;;;;20.54;40.34;101240.27;106434;1276;71619;-79
2022/05/15 08:31:52;;;;;;;6.60;2.80;;;;;;;20.62;40.11;101241.29;106267;1276;70598;-81
2022/05/15 08:34:20;;;;;;;7.10;3.00;;;;;;;20.74;39.55;101243.55;106098;1276;63559;-79
2022/05/15 08:36:51;;;;;;;8.80;3.30;;;;;;;20.71;39.02;101235.36;105701;1276;57926;-80
2022/05/15 08:39:20;;;;;;;7.90;2.90;;;;;;;20.77;38.73;101241.20;105442;1277;59793;-78
2022/05/15 08:42:34;;;;;;;6.30;2.70;;;;;;;20.85;38.29;101235.17;106338;1267;71880;31
2022/05/15 08:45:05;;;;;;;7.60;2.80;;;;;;;20.99;37.50;101233.16;106273;1276;72141;-80
2022/05/15 08:47:43;;;;;;;5.60;2.80;;;;;;;21.01;37.75;101230.99;105595;1279;59797;-79
2022/05/15 08:50:29;;;;;;;20.20;7.30;;;;;;;21.05;37.99;101229.27;105177;1276;62627;-81
2022/05/15 08:53:15;;;;;;;5.10;2.90;;;;;;;21.19;37.90;101235.94;105055;1279;60573;-77
2022/05/15 08:55:59;;;;;;;5.80;2.50;;;;;;;21.30;37.62;101227.73;105079;1276;61130;-78
2022/05/15 08:58:42;;;;;;;4.90;2.30;;;;;;;21.36;36.20;101236.55;105038;1279;73709;-78
2022/05/15 09:01:22;;;;;;;6.20;2.10;;;;;;;21.21;34.65;101237.76;105070;1276;61663;-79
2022/05/15 09:03:53;;;;;;;6.70;2.30;;;;;;;21.07;34.69;101236.17;105130;1276;61272;-79
2022/05/15 09:07:03;;;;;;;5.40;2.50;;;;;;;21.11;34.27;101234.84;105078;1279;74650;-79
2022/05/15 09:09:34;;;;;;;5.20;2.20;;;;;;;21.18;33.22;101237.20;105020;1279;60026;-80
2022/05/15 09:12:24;;;;;;;5.20;2.50;;;;;;;21.24;32.95;101244.50;105287;1279;59076;-80
2022/05/15 09:15:04;;;;;;;5.60;2.00;;;;;;;21.27;31.97;101235.77;105509;1279;62318;-80
2022/05/15 09:18:04;;;;;;;5.30;1.80;;;;;;;21.49;31.09;101237.61;105429;1277;71637;-81
2022/05/15 09:21:02;;;;;;;5.60;2.20;;;;;;;21.52;31.49;101230.36;105250;1276;70370;-79
2022/05/15 09:23:35;;;;;;;4.40;2.00;;;;;;;21.79;32.03;101234.61;105114;1277;73810;-78
2022/05/15 09:26:26;;;;;;;5.40;2.30;;;;;;;21.81;31.60;101224.92;105244;1275;61032;-77
2022/05/15 09:29:05;;;;;;;7.20;2.40;;;;;;;21.98;31.84;101222.84;105132;1279;58647;-79
2022/05/15 09:31:44;;;;;;;5.00;2.30;;;;;;;22.07;31.97;101224.70;105239;1278;72412;-79
2022/05/15 09:34:29;;;;;;;5.30;2.50;;;;;;;22.27;31.85;101222.64;105081;1279;62082;-79
2022/05/15 09:39:52;;;;;;;5.70;2.70;;;;;;;22.33;33.03;101222.97;105062;1279;73239;-79
2022/05/15 09:45:35;;;;;;;6.90;2.60;;;;;;;22.35;32.87;101210.73;104829;1279;60438;-78
2022/05/15 09:48:11;;;;;;;3.50;2.40;;;;;;;22.40;32.56;101201.30;104890;1279;62131;-77
2022/05/15 09:50:47;;;;;;;6.70;3.10;;;;;;;22.34;33.40;101209.70;104869;1279;72456;-76
2022/05/15 09:53:39;;;;;;;5.90;2.70;;;;;;;22.33;33.59;101214.30;104882;1279;59983;-77
2022/05/15 09:56:25;;;;;;;6.10;2.90;;;;;;;22.35;33.39;101213.40;105224;1279;72830;-81
2022/05/15 09:58:58;;;;;;;4.80;2.70;;;;;;;22.15;33.80;101215.64;105228;1279;59127;-81
2022/05/15 10:01:39;;;;;;;6.20;2.70;;;;;;;22.00;34.48;101208.63;105233;1279;59070;-81
2022/05/15 10:04:21;;;;;;;8.70;2.90;;;;;;;22.25;34.36;101202.61;104998;1278;71354;-79
2022/05/15 10:07:04;;;;;;;5.60;2.80;;;;;;;22.28;33.53;101205.36;105014;1279;62194;-79
2022/05/15 10:09:40;;;;;;;3.90;2.30;;;;;;;22.25;33.12;101212.77;105000;1279;71765;-79
2022/05/15 10:12:30;;;;;;;5.50;2.60;;;;;;;22.16;33.21;101195.84;105012;1279;73080;-81
2022/05/15 10:15:08;;;;;;;5.20;2.60;;;;;;;22.03;33.21;101203.04;105019;1279;61648;-79
2022/05/15 10:17:50;;;;;;;4.30;2.40;;;;;;;22.13;33.28;101207.43;105078;1279;59190;-79
2022/05/15 10:20:32;;;;;;;7.10;3.50;;;;;;;22.32;33.23;101201.80;105056;1279;73385;-80
2022/05/15 10:23:32;;;;;;;5.70;3.00;;;;;;;22.67;32.65;101201.70;105190;1277;72153;-79
2022/05/15 10:26:16;;;;;;;4.90;2.50;;;;;;;23.09;32.06;101190.98;105336;1277;70793;-79
2022/05/15 10:29:22;;;;;;;5.10;2.40;;;;;;;23.35;32.68;101193.46;105143;1279;74487;-80
2022/05/15 10:32:17;;;;;;;5.10;2.10;;;;;;;23.32;31.75;101191.75;104977;1279;61765;-81
2022/05/15 10:34:46;;;;;;;7.60;2.90;;;;;;;23.46;31.35;101196.77;105013;1279;59082;-79
2022/05/15 10:37:28;;;;;;;5.90;2.50;;;;;;;23.47;31.34;101194.73;105067;1279;62253;-78
2022/05/15 10:40:29;;;;;;;4.60;2.50;;;;;;;23.49;31.43;101190.73;104994;1279;71963;-77
2022/05/15 10:43:25;;;;;;;5.00;2.50;;;;;;;23.78;31.08;101185.02;105300;1279;60625;-79
2022/05/15 10:46:27;;;;;;;8.60;2.50;;;;;;;23.94;30.74;101179.23;104969;1279;62604;-78
2022/05/15 10:49:34;;;;;;;5.10;2.60;;;;;;;24.39;30.62;101172.36;105143;1279;61326;-77
2022/05/15 10:57:21;;;;;;;7.40;2.80;;;;;;;25.00;30.34;101171.27;105048;1276;60265;-79
2022/05/15 10:59:36;;;;;;;7.60;2.70;;;;;;;24.63;29.30;101170.17;105046;1279;61945;-78
2022/05/15 11:02:51;;;;;;;5.20;2.20;;;;;;;24.94;29.18;101168.63;104933;1279;70328;-79
2022/05/15 11:05:30;;;;;;;4.20;2.70;;;;;;;24.61;29.21;101173.69;105056;1279;63158;-79
2022/05/15 11:08:08;;;;;;;6.20;2.70;;;;;;;24.20;29.41;101162.61;105121;1279;61353;-78
2022/05/15 11:11:01;;;;;;;5.00;2.30;;;;;;;24.72;29.25;101168.18;105123;1279;57546;-80
2022/05/15 11:13:43;;;;;;;5.30;2.40;;;;;;;25.02;28.48;101164.16;105182;1279;61521;-79
2022/05/15 11:16:35;;;;;;;8.10;2.40;;;;;;;25.17;28.58;101163.07;105089;1279;72125;-78
2022/05/15 11:19:19;;;;;;;6.20;2.40;;;;;;;25.41;27.89;101165.30;105236;1279;59322;-79
2022/05/15 11:22:11;;;;;;;4.70;2.20;;;;;;;25.39;27.83;101160.28;105167;1279;62942;-81
2022/05/15 11:24:57;;;;;;;3.90;2.30;;;;;;;25.10;28.26;101165.19;105289;1276;60608;-79
2022/05/15 11:27:53;;;;;;;6.30;2.50;;;;;;;25.06;28.21;101160.80;105163;1277;60648;-78
2022/05/15 11:30:32;;;;;;;7.50;2.10;;;;;;;25.04;28.07;101156.74;105061;1279;73688;-81
2022/05/15 11:33:25;;;;;;;9.50;2.70;;;;;;;25.20;28.20;101153.05;105079;1279;71736;-80
2022/05/15 11:36:36;;;;;;;5.90;2.50;;;;;;;25.53;27.87;101151.34;104921;1280;61151;-78
2022/05/15 11:39:06;;;;;;;5.10;2.50;;;;;;;26.03;26.86;101138.48;105375;1279;63443;-81
2022/05/15 11:41:35;;;;;;;5.30;2.60;;;;;;;26.14;26.72;101145.90;105405;1279;57963;-79
2022/05/15 11:44:20;;;;;;;5.50;2.60;;;;;;;25.58;27.12;101147.97;105169;1279;58339;-77
2022/05/15 11:46:50;;;;;;;7.50;2.30;;;;;;;25.95;26.64;101144.91;105167;1279;62144;-77
2022/05/15 11:49:56;;;;;;;9.50;2.80;;;;;;;26.11;26.72;101145.73;105141;1277;62455;-78
2022/05/15 11:52:42;;;;;;;5.70;2.40;;;;;;;26.56;25.98;101143.35;105024;1280;70741;-78
2022/05/15 11:55:41;;;;;;;7.20;2.40;;;;;;;26.70;25.72;101141.21;104917;1279;74718;-78
2022/05/15 11:58:26;;;;;;;4.40;2.30;;;;;;;26.46;25.66;101148.52;105184;1279;58933;-79
2022/05/15 12:01:08;;;;;;;5.00;2.10;;;;;;;26.81;25.28;101135.60;105350;1276;59675;-78
2022/05/15 12:03:52;;;;;;;;;;;;;;;26.70;25.69;101129.13;105288;1279;62081;-80
2022/05/15 12:06:32;;;;;;;4.30;2.20;;;;;;;26.47;26.02;101123.83;105120;1277;61056;-78
2022/05/15 12:09:44;;;;;;;4.00;2.20;;;;;;;26.84;25.33;101119.55;105152;1277;60158;-79
2022/05/15 12:12:27;;;;;;;6.80;2.40;;;;;;;27.35;24.98;101119.77;105371;1276;73276;-79
2022/05/15 12:15:16;;;;;;;6.30;2.20;;;;;;;27.10;24.90;101122.43;105268;1278;60654;-79
2022/05/15 12:18:23;;;;;;;3.60;2.00;;;;;;;27.11;24.79;101110.12;105157;1279;61996;-79
2022/05/15 12:20:53;;;;;;;4.80;2.50;;;;;;;26.95;25.15;101110.39;105150;1279;73100;-79
2022/05/15 12:26:55;;;;;;;5.80;2.10;;;;;;;26.52;25.29;101105.65;105421;1279;69931;-80
2022/05/15 12:29:40;;;;;;;4.30;2.10;;;;;;;27.03;24.50;101107.62;105286;1277;63025;-80
2022/05/15 12:32:20;;;;;;;5.40;2.20;;;;;;;27.04;24.42;101105.39;105259;1279;60098;-79
2022/05/15 12:34:51;;;;;;;5.90;2.70;;;;;;;26.32;25.23;101099.04;105271;1278;57546;-78
2022/05/15 12:37:50;;;;;;;6.10;2.50;;;;;;;26.46;25.59;101108.02;106052;1279;73418;-79